Home > Products > Valid Products > TAF

000
FTUS45 KTWC 191100
TAFOLS
TAF
KOLS 191127Z 1912/2012 VRB03KT P6SM SKC
     FM191900 27011KT P6SM FEW250
     FM200300 VRB04KT P6SM SCT250=



000
FTUS45 KTWC 191100
TAFDUG
TAF
KDUG 191127Z 1912/2012 VRB04KT P6SM SKC
     FM191900 25011G17KT P6SM FEW130
     FM200300 35007KT P6SM SCT250=



000
FTUS45 KTWC 191100
TAFDUG
TAF
KDUG 191127Z 1912/2012 VRB04KT P6SM SKC
     FM191900 25011G17KT P6SM FEW130
     FM200300 35007KT P6SM SCT250=



000
FTUS45 KTWC 191100
TAFTUS
TAF
KTUS 191127Z 1912/2012 14010KT P6SM SKC
     FM191500 VRB03KT P6SM SKC
     FM191900 31009KT P6SM FEW250
     FM200200 23005KT P6SM FEW250
     FM200700 14007KT P6SM SCT250=



000
FTUS45 KTWC 191100
TAFOLS
TAF
KOLS 191127Z 1912/2012 VRB03KT P6SM SKC
     FM191900 27011KT P6SM FEW250
     FM200300 VRB04KT P6SM SCT250=



000
FTUS45 KTWC 191100
TAFOLS
TAF
KOLS 191127Z 1912/2012 VRB03KT P6SM SKC
     FM191900 27011KT P6SM FEW250
     FM200300 VRB04KT P6SM SCT250=



000
FTUS45 KTWC 191100
TAFOLS
TAF
KOLS 191127Z 1912/2012 VRB03KT P6SM SKC
     FM191900 27011KT P6SM FEW250
     FM200300 VRB04KT P6SM SCT250=



000
FTUS45 KTWC 191100
TAFTUS
TAF
KTUS 191127Z 1912/2012 14010KT P6SM SKC
     FM191500 VRB03KT P6SM SKC
     FM191900 31009KT P6SM FEW250
     FM200200 23005KT P6SM FEW250
     FM200700 14007KT P6SM SCT250=



000
FTUS45 KTWC 190500
TAFOLS
TAF
KOLS 190520Z 1906/2006 VRB03KT P6SM SKC
     FM191800 27007KT P6SM SKC
     FM200300 VRB04KT P6SM SKC=



000
FTUS45 KTWC 190500
TAFOLS
TAF
KOLS 190520Z 1906/2006 VRB03KT P6SM SKC
     FM191800 27007KT P6SM SKC
     FM200300 VRB04KT P6SM SKC=



000
FTUS45 KTWC 190500
TAFDUG
TAF
KDUG 190520Z 1906/2006 35009KT P6SM SKC
     FM191000 VRB04KT P6SM SKC
     FM191800 29009G15KT P6SM SKC
     FM200200 33007KT P6SM SKC=



000
FTUS45 KTWC 190500
TAFTUS
TAF
KTUS 190520Z 1906/2006 20005KT P6SM SKC
     FM190700 14006KT P6SM SKC
     FM191900 31007KT P6SM SKC
     FM200400 23005KT P6SM SKC=



000
FTUS45 KTWC 190500
TAFOLS
TAF
KOLS 190520Z 1906/2006 VRB03KT P6SM SKC
     FM191800 27007KT P6SM SKC
     FM200300 VRB04KT P6SM SKC=



000
FTUS45 KTWC 190500
TAFOLS
TAF
KOLS 190520Z 1906/2006 VRB03KT P6SM SKC
     FM191800 27007KT P6SM SKC
     FM200300 VRB04KT P6SM SKC=



000
FTUS45 KTWC 190500
TAFDUG
TAF
KDUG 190520Z 1906/2006 35009KT P6SM SKC
     FM191000 VRB04KT P6SM SKC
     FM191800 29009G15KT P6SM SKC
     FM200200 33007KT P6SM SKC=



000
FTUS45 KTWC 190500
TAFTUS
TAF
KTUS 190520Z 1906/2006 20005KT P6SM SKC
     FM190700 14006KT P6SM SKC
     FM191900 31007KT P6SM SKC
     FM200400 23005KT P6SM SKC=



000
FTUS45 KTWC 190200 AAA
TAFTUS
TAF AMD
KTUS 190220Z 1902/1924 34007KT P6SM SKC
     FM190700 14007KT P6SM SKC
     FM191900 31007KT P6SM SKC=



000
FTUS45 KTWC 182300
TAFTUS
TAF
KTUS 182320Z 1900/1924 30010G18KT P6SM SKC
     FM190200 29005KT P6SM SKC
     FM190700 14007KT P6SM SKC
     FM191900 31007KT P6SM SKC=



000
FTUS45 KTWC 182300
TAFOLS
TAF
KOLS 182320Z 1900/1924 30010G18KT P6SM SKC
     FM190200 30007KT P6SM SKC
     FM190400 VRB03KT P6SM SKC
     FM191800 27007KT P6SM SKC=



000
FTUS45 KTWC 182300
TAFOLS
TAF
KOLS 182320Z 1900/1924 30010G18KT P6SM SKC
     FM190200 30007KT P6SM SKC
     FM190400 VRB03KT P6SM SKC
     FM191800 27007KT P6SM SKC=



000
FTUS45 KTWC 182300
TAFDUG
TAF
KDUG 182320Z 1900/1924 31015G23KT P6SM SKC
     FM190200 35009KT P6SM SKC
     FM191000 VRB04KT P6SM SKC
     FM191800 29009G15KT P6SM SKC=



000
FTUS45 KTWC 181700
TAFOLS
TAF
KOLS 181732Z 1818/1918 28010G18KT P6SM SKC
     FM190200 30007KT P6SM SKC
     FM190500 VRB03KT P6SM SKC=



000
FTUS45 KTWC 181700
TAFDUG
TAF
KDUG 181732Z 1818/1918 30010G18KT P6SM SKC
     FM181900 31015G23KT P6SM SKC
     FM190200 35009KT P6SM SKC
     FM191000 VRB03KT P6SM SKC=



000
FTUS45 KTWC 181700
TAFOLS
TAF
KOLS 181732Z 1818/1918 28010G18KT P6SM SKC
     FM190200 30007KT P6SM SKC
     FM190500 VRB03KT P6SM SKC=



000
FTUS45 KTWC 181700
TAFTUS
TAF
KTUS 181732Z 1818/1918 29006KT P6SM SKC
     FM182000 30010G18KT P6SM SKC
     FM190200 24005KT P6SM SKC
     FM190700 14007KT P6SM SKC=



000
FTUS45 KTWC 181100
TAFOLS
TAF
KOLS 181126Z 1812/1912 08005KT P6SM SKC
     FM181800 28010G18KT P6SM SKC
     FM190200 30007KT P6SM SKC
     FM190500 VRB03KT P6SM SKC=



000
FTUS45 KTWC 181100
TAFDUG
TAF
KDUG 181126Z 1812/1912 05005KT P6SM SKC
     FM181700 29010G18KT P6SM SKC
     FM181900 31015G23KT P6SM SKC
     FM190200 35009KT P6SM SKC
     FM191000 VRB03KT P6SM SKC=



000
FTUS45 KTWC 181100
TAFTUS
TAF
KTUS 181126Z 1812/1912 14008KT P6SM SKC
     FM181900 30010G18KT P6SM SKC
     FM190200 24005KT P6SM SKC
     FM190700 14007KT P6SM SKC=



000
FTUS45 KTWC 181100
TAFOLS
TAF
KOLS 181126Z 1812/1912 08005KT P6SM SKC
     FM181800 28010G18KT P6SM SKC
     FM190200 30007KT P6SM SKC
     FM190500 VRB03KT P6SM SKC=



000
FTUS45 KTWC 181100
TAFOLS
TAF
KOLS 181126Z 1812/1912 08005KT P6SM SKC
     FM181800 28010G18KT P6SM SKC
     FM190200 30007KT P6SM SKC
     FM190500 VRB03KT P6SM SKC=



000
FTUS45 KTWC 181100
TAFOLS
TAF
KOLS 181126Z 1812/1912 08005KT P6SM SKC
     FM181800 28010G18KT P6SM SKC
     FM190200 30007KT P6SM SKC
     FM190500 VRB03KT P6SM SKC=



000
FTUS45 KTWC 181100
TAFDUG
TAF
KDUG 181126Z 1812/1912 05005KT P6SM SKC
     FM181700 29010G18KT P6SM SKC
     FM181900 31015G23KT P6SM SKC
     FM190200 35009KT P6SM SKC
     FM191000 VRB03KT P6SM SKC=



000
FTUS45 KTWC 181100
TAFTUS
TAF
KTUS 181126Z 1812/1912 14008KT P6SM SKC
     FM181900 30010G18KT P6SM SKC
     FM190200 24005KT P6SM SKC
     FM190700 14007KT P6SM SKC=



000
FTUS45 KTWC 180500
TAFOLS
TAF
KOLS 180520Z 1806/1906 VRB05KT P6SM SKC
     FM181800 28010G18KT P6SM SKC
     FM190200 28007KT P6SM SKC
     FM190400 VRB04KT P6SM SKC=



000
FTUS45 KTWC 180500
TAFTUS
TAF
KTUS 180520Z 1806/1906 VRB04KT P6SM SKC
     FM180900 14005KT P6SM SKC
     FM181900 30010G18KT P6SM SKC
     FM190200 31007KT P6SM SKC=



000
FTUS45 KTWC 180500
TAFDUG
TAF
KDUG 180520Z 1806/1906 34009KT P6SM SKC
     FM181100 VRB04KT P6SM FEW250
     FM181800 31012G20KT P6SM SKC
     FM190200 33009KT P6SM SKC=



000
FTUS45 KTWC 180500
TAFOLS
TAF
KOLS 180520Z 1806/1906 VRB05KT P6SM SKC
     FM181800 28010G18KT P6SM SKC
     FM190200 28007KT P6SM SKC
     FM190400 VRB04KT P6SM SKC=



000
FTUS45 KTWC 172300
TAFOLS
TAF
KOLS 172324Z 1800/1824 33007G14KT P6SM SKC
     FM180200 32007KT P6SM SKC
     FM180400 VRB04KT P6SM SKC
     FM181800 28010G18KT P6SM SKC=



000
FTUS45 KTWC 172300
TAFTUS
TAF
KTUS 172324Z 1800/1824 33010KT P6SM SKC
     FM180400 23005KT P6SM SKC
     FM180900 14007KT P6SM SKC
     FM181900 30010G18KT P6SM SKC=



000
FTUS45 KTWC 172300
TAFTUS
TAF
KTUS 172324Z 1800/1824 33010KT P6SM SKC
     FM180400 23005KT P6SM SKC
     FM180900 14007KT P6SM SKC
     FM181900 30010G18KT P6SM SKC=



000
FTUS45 KTWC 172300
TAFOLS
TAF
KOLS 172324Z 1800/1824 33007G14KT P6SM SKC
     FM180200 32007KT P6SM SKC
     FM180400 VRB04KT P6SM SKC
     FM181800 28010G18KT P6SM SKC=



000
FTUS45 KTWC 172300
TAFDUG
TAF
KDUG 172324Z 1800/1824 30010G16KT P6SM SKC
     FM180200 34009KT P6SM SKC
     FM181100 VRB04KT P6SM FEW250
     FM181800 31012G20KT P6SM SKC=



000
FTUS45 KTWC 172300
TAFDUG
TAF
KDUG 172324Z 1800/1824 30010G16KT P6SM SKC
     FM180200 34009KT P6SM SKC
     FM181100 VRB04KT P6SM FEW250
     FM181800 31012G20KT P6SM SKC=



000
FTUS45 KTWC 172300
TAFOLS
TAF
KOLS 172324Z 1800/1824 33007G14KT P6SM SKC
     FM180200 32007KT P6SM SKC
     FM180400 VRB04KT P6SM SKC
     FM181800 28010G18KT P6SM SKC=



000
FTUS45 KTWC 172300
TAFOLS
TAF
KOLS 172324Z 1800/1824 33007G14KT P6SM SKC
     FM180200 32007KT P6SM SKC
     FM180400 VRB04KT P6SM SKC
     FM181800 28010G18KT P6SM SKC=



000
FTUS45 KTWC 171700
TAFOLS
TAF
KOLS 171734Z 1718/1818 27008KT P6SM SKC
     FM172100 30011G18KT P6SM SKC
     FM180400 VRB04KT P6SM SKC=



000
FTUS45 KTWC 171700
TAFTUS
TAF
KTUS 171734Z 1718/1818 31011KT P6SM SKC
     FM180300 23005KT P6SM SKC
     FM180700 14007KT P6SM SKC=



000
FTUS45 KTWC 171700
TAFDUG
TAF
KDUG 171734Z 1718/1818 27008KT P6SM SKC
     FM172000 30013G20KT P6SM SKC
     FM180200 34009KT P6SM FEW120
     FM181000 VRB04KT P6SM SKC=



000
FTUS45 KTWC 171700
TAFOLS
TAF
KOLS 171734Z 1718/1818 27008KT P6SM SKC
     FM172100 30011G18KT P6SM SKC
     FM180400 VRB04KT P6SM SKC=



000
FTUS45 KTWC 171700
TAFOLS
TAF
KOLS 171734Z 1718/1818 27008KT P6SM SKC
     FM172100 30011G18KT P6SM SKC
     FM180400 VRB04KT P6SM SKC=



000
FTUS45 KTWC 171700
TAFTUS
TAF
KTUS 171734Z 1718/1818 31011KT P6SM SKC
     FM180300 23005KT P6SM SKC
     FM180700 14007KT P6SM SKC=



000
FTUS45 KTWC 171700
TAFDUG
TAF
KDUG 171734Z 1718/1818 27008KT P6SM SKC
     FM172000 30013G20KT P6SM SKC
     FM180200 34009KT P6SM FEW120
     FM181000 VRB04KT P6SM SKC=



000
FTUS45 KTWC 171100 RRA
TAFDUG
TAF
KDUG 171140Z 1712/1812 34007KT P6SM SKC
     FM171400 VRB03KT P6SM SKC
     FM172000 29012G18KT P6SM SKC
     FM180300 34009KT P6SM FEW120
     FM181000 VRB04KT P6SM SKC=



000
FTUS45 KTWC 171100 RRA
TAFTUS
TAF
KTUS 171140Z 1712/1812 14007KT P6SM SKC
     FM171500 VRB04KT P6SM SKC
     FM172000 32011KT P6SM SKC
     FM180300 23005KT P6SM SKC
     FM180700 14007KT P6SM SKC=



000
FTUS45 KTWC 171100 RRA
TAFOLS
TAF
KOLS 171140Z 1712/1812 VRB03KT P6SM SKC
     FM171500 VRB03KT P6SM SKC
     FM172100 30013G20KT P6SM SKC
     FM180300 VRB03KT P6SM SKC=



000
FTUS45 KTWC 171100 RRA
TAFOLS
TAF
KOLS 171140Z 1712/1812 VRB03KT P6SM SKC
     FM171500 VRB03KT P6SM SKC
     FM172100 30013G20KT P6SM SKC
     FM180300 VRB03KT P6SM SKC=



000
FTUS45 KTWC 171100 RRA
TAFTUS
TAF
KTUS 171140Z 1712/1812 14007KT P6SM SKC
     FM171500 VRB04KT P6SM SKC
     FM172000 32011KT P6SM SKC
     FM180300 23005KT P6SM SKC
     FM180700 14007KT P6SM SKC=



000
FTUS45 KTWC 171100 RRA
TAFOLS
TAF
KOLS 171140Z 1712/1812 VRB03KT P6SM SKC
     FM171500 VRB03KT P6SM SKC
     FM172100 30013G20KT P6SM SKC
     FM180300 VRB03KT P6SM SKC=



000
FTUS45 KTWC 171100 RRA
TAFDUG
TAF
KDUG 171140Z 1712/1812 34007KT P6SM SKC
     FM171400 VRB03KT P6SM SKC
     FM172000 29012G18KT P6SM SKC
     FM180300 34009KT P6SM FEW120
     FM181000 VRB04KT P6SM SKC=



000
FTUS45 KTWC 171100 RRA
TAFOLS
TAF
KOLS 171140Z 1712/1812 VRB03KT P6SM SKC
     FM171500 VRB03KT P6SM SKC
     FM172100 30013G20KT P6SM SKC
     FM180300 VRB03KT P6SM SKC=



000
FTUS45 KTWC 170500
TAFOLS
TAF
KOLS 170533Z 1706/1806 VRB03KT P6SM SKC
     FM171800 31007KT P6SM SKC
     FM172100 30011KT P6SM SKC
     FM180300 VRB03KT P6SM SKC=



000
FTUS45 KTWC 170500
TAFOLS
TAF
KOLS 170533Z 1706/1806 VRB03KT P6SM SKC
     FM171800 31007KT P6SM SKC
     FM172100 30011KT P6SM SKC
     FM180300 VRB03KT P6SM SKC=



000
FTUS45 KTWC 170500
TAFTUS
TAF
KTUS 170533Z 1706/1806 24005KT P6SM SKC
     FM171000 15006KT P6SM SKC
     FM171800 34006KT P6SM SKC
     FM172100 32011KT P6SM SKC
     FM180300 26005KT P6SM SKC=



000
FTUS45 KTWC 170500
TAFDUG
TAF
KDUG 170533Z 1706/1806 35011KT P6SM SKC
     FM170800 34006KT P6SM SKC
     FM171800 29009KT P6SM SKC
     FM172100 29012G18KT P6SM SKC
     FM180300 34009KT P6SM SKC=



000
FTUS45 KTWC 170500
TAFOLS
TAF
KOLS 170533Z 1706/1806 VRB03KT P6SM SKC
     FM171800 31007KT P6SM SKC
     FM172100 30011KT P6SM SKC
     FM180300 VRB03KT P6SM SKC=



000
FTUS45 KTWC 170500
TAFOLS
TAF
KOLS 170533Z 1706/1806 VRB03KT P6SM SKC
     FM171800 31007KT P6SM SKC
     FM172100 30011KT P6SM SKC
     FM180300 VRB03KT P6SM SKC=



000
FTUS45 KTWC 170500
TAFDUG
TAF
KDUG 170533Z 1706/1806 35011KT P6SM SKC
     FM170800 34006KT P6SM SKC
     FM171800 29009KT P6SM SKC
     FM172100 29012G18KT P6SM SKC
     FM180300 34009KT P6SM SKC=



000
FTUS45 KTWC 170500
TAFTUS
TAF
KTUS 170533Z 1706/1806 24005KT P6SM SKC
     FM171000 15006KT P6SM SKC
     FM171800 34006KT P6SM SKC
     FM172100 32011KT P6SM SKC
     FM180300 26005KT P6SM SKC=



000
FTUS45 KTWC 162300
TAFOLS
TAF
KOLS 162336Z 1700/1724 34012KT P6SM SKC
     FM170200 27009KT P6SM SKC
     FM170500 VRB03KT P6SM SKC
     FM171800 27009KT P6SM SKC
     FM172100 30011KT P6SM SKC=



000
FTUS45 KTWC 162300
TAFDUG
TAF
KDUG 162336Z 1700/1724 27015G23KT P6SM SKC
     FM170200 33011KT P6SM SKC
     FM170700 35006KT P6SM SKC
     FM171800 30011KT P6SM SKC
     FM172100 28012G18KT P6SM SKC=



000
FTUS45 KTWC 162300
TAFTUS
TAF
KTUS 162336Z 1700/1724 32013KT P6SM SKC
     FM170300 33007KT P6SM SKC
     FM170600 23005KT P6SM SKC
     FM171000 15006KT P6SM SKC
     FM171800 34006KT P6SM SKC
     FM172100 31010KT P6SM SKC=



000
FTUS45 KTWC 162300
TAFOLS
TAF
KOLS 162336Z 1700/1724 34012KT P6SM SKC
     FM170200 27009KT P6SM SKC
     FM170500 VRB03KT P6SM SKC
     FM171800 27009KT P6SM SKC
     FM172100 30011KT P6SM SKC=



000
FTUS45 KTWC 161700
TAFOLS
TAF
KOLS 161732Z 1618/1718 29011KT P6SM SKC
     FM162000 28015G22KT P6SM SKC
     FM170300 30009KT P6SM SKC
     FM170900 VRB04KT P6SM SKC=



000
FTUS45 KTWC 161700
TAFOLS
TAF
KOLS 161732Z 1618/1718 29011KT P6SM SKC
     FM162000 28015G22KT P6SM SKC
     FM170300 30009KT P6SM SKC
     FM170900 VRB04KT P6SM SKC=



000
FTUS45 KTWC 161700
TAFTUS
TAF
KTUS 161732Z 1618/1718 31012G20KT P6SM SKC
     FM170300 27008KT P6SM SKC
     FM171000 15007KT P6SM SKC=



000
FTUS45 KTWC 161700
TAFDUG
TAF
KDUG 161732Z 1618/1718 29012G20KT P6SM SKC
     FM162100 27022G32KT P6SM FEW150
     FM170200 34011KT P6SM FEW150
     FM171000 VRB04KT P6SM SKC=



000
FTUS45 KTWC 161700
TAFOLS
TAF
KOLS 161732Z 1618/1718 29011KT P6SM SKC
     FM162000 28015G22KT P6SM SKC
     FM170300 30009KT P6SM SKC
     FM170900 VRB04KT P6SM SKC=



000
FTUS45 KTWC 161700
TAFDUG
TAF
KDUG 161732Z 1618/1718 29012G20KT P6SM SKC
     FM162100 27022G32KT P6SM FEW150
     FM170200 34011KT P6SM FEW150
     FM171000 VRB04KT P6SM SKC=



000
FTUS45 KTWC 161700
TAFOLS
TAF
KOLS 161732Z 1618/1718 29011KT P6SM SKC
     FM162000 28015G22KT P6SM SKC
     FM170300 30009KT P6SM SKC
     FM170900 VRB04KT P6SM SKC=



000
FTUS45 KTWC 161700
TAFTUS
TAF
KTUS 161732Z 1618/1718 31012G20KT P6SM SKC
     FM170300 27008KT P6SM SKC
     FM171000 15007KT P6SM SKC=



    US Dept of Commerce
    National Oceanic and Atmospheric Administration
    National Weather Service
    1325 East West Highway
    Silver Spring, MD 20910
    Page Author: NWS Internet Services Team
Disclaimer
Information Quality
Credits
Glossary
Privacy Policy
Freedom of Information Act (FOIA)
About Us
Career Opportunities